Time;durP1;ratioP1;P1;durP2;ratioP2;P2;SDS_P1;SDS_P2;PMS_P1;PMS_P2;Temp;Humidity;BMP_temperature;BMP_pressure;BME280_temperature;BME280_humidity;BME280_pressure;Samples;Min_cycle;Max_cycle;Signal;HPM_P1;HPM_P2
2022/12/15 00:40:26;;;;;;;242.75;108.87;;;;;;;0.15;67.76;93290.32;1802809;79;21154;-54
2022/12/15 00:42:53;;;;;;;179.42;87.60;;;;;;;0.17;67.17;93277.72;1807228;78;21045;-54
2022/12/15 00:45:19;;;;;;;197.95;95.57;;;;;;;0.12;67.05;93268.19;1795887;79;21451;-55
2022/12/15 00:47:47;;;;;;;196.37;93.05;;;;;;;0.05;67.00;93258.84;1804573;78;21014;-55
2022/12/15 01:20:33;;;;;;;100.53;52.93;;;;;;;0.47;66.83;93239.63;1793235;78;21172;-54
2022/12/15 01:23:00;;;;;;;99.50;47.27;;;;;;;0.56;66.93;93231.11;1807903;78;20958;-53
2022/12/15 01:25:27;;;;;;;118.67;61.18;;;;;;;0.63;66.45;93230.19;1789795;79;21040;-55
2022/12/15 01:27:54;;;;;;;106.92;55.88;;;;;;;0.59;66.10;93224.84;1798610;79;21010;-54
2022/12/15 01:30:24;;;;;;;129.27;64.82;;;;;;;0.57;66.26;93229.17;1800289;78;21047;-54
2022/12/15 01:32:51;;;;;;;147.45;72.17;;;;;;;0.49;66.48;93233.98;1795864;78;21858;-54
2022/12/15 01:35:19;;;;;;;141.75;72.42;;;;;;;0.45;66.93;93223.06;1790513;79;20997;-54
2022/12/15 01:37:45;;;;;;;152.90;73.40;;;;;;;0.45;66.89;93214.34;1784591;79;21103;-55
2022/12/15 01:43:02;;;;;;;119.77;58.45;;;;;;;0.30;67.31;93211.80;1737536;81;21072;-54
2022/12/15 01:45:37;;;;;;;116.03;60.08;;;;;;;0.26;67.24;93208.39;1745264;81;21864;-53
2022/12/15 01:48:06;;;;;;;134.57;64.35;;;;;;;0.22;67.21;93200.95;1715717;82;21030;-53
2022/12/15 01:50:41;;;;;;;130.27;66.33;;;;;;;0.25;67.33;93202.81;1716013;82;20969;-54
2022/12/15 01:53:09;;;;;;;124.87;64.60;;;;;;;0.26;67.51;93208.39;1682040;85;21546;-55
2022/12/15 01:55:36;;;;;;;165.18;75.42;;;;;;;0.28;67.45;93196.59;1681924;85;21667;-54
2022/12/15 01:58:05;;;;;;;151.65;69.72;;;;;;;0.37;67.63;93183.23;1669921;85;21262;-55
2022/12/15 02:00:32;;;;;;;126.70;63.15;;;;;;;0.51;67.62;93187.56;1677163;85;20981;-54
2022/12/15 02:02:59;;;;;;;116.57;60.88;;;;;;;0.61;67.19;93186.56;1673207;85;21109;-54
2022/12/15 06:03:42;;;;;;;158.07;66.00;;;;;;;-0.48;84.42;93275.12;1831039;77;26144;-50
2022/12/15 06:06:11;;;;;;;117.47;57.60;;;;;;;-0.41;84.36;93285.81;1793349;78;21007;-52
2022/12/15 06:08:40;;;;;;;120.67;56.42;;;;;;;-0.36;83.94;93287.45;1810420;78;22126;-51
2022/12/15 06:11:06;;;;;;;161.15;76.75;;;;;;;-0.28;84.07;93297.52;1799409;78;21135;-53
2022/12/15 06:13:33;;;;;;;201.47;96.53;;;;;;;-0.24;83.73;93290.13;1808582;78;20997;-53
2022/12/15 06:16:04;;;;;;;282.90;120.00;;;;;;;-0.16;84.02;93303.67;1788136;78;21026;-51
2022/12/15 06:18:37;;;;;;;215.00;96.47;;;;;;;-0.03;83.90;93304.59;1804213;78;21045;-51
2022/12/15 06:21:11;;;;;;;189.93;85.62;;;;;;;0.08;83.86;93301.86;1740893;80;21984;-52
2022/12/15 06:23:38;;;;;;;195.30;88.42;;;;;;;0.22;83.47;93311.05;1762376;79;21082;-52
2022/12/15 06:26:20;;;;;;;214.00;106.25;;;;;;;0.20;82.52;93314.16;1781151;80;20986;-52
2022/12/15 06:28:49;;;;;;;198.62;99.83;;;;;;;0.19;82.51;93324.80;1704257;83;21100;-50
2022/12/15 06:31:21;;;;;;;169.95;90.62;;;;;;;0.15;82.21;93328.74;1721320;81;21103;-50
2022/12/15 06:33:50;;;;;;;179.90;92.57;;;;;;;0.15;82.09;93326.81;1722803;81;21235;-54
2022/12/15 06:36:17;;;;;;;151.12;81.53;;;;;;;0.18;82.25;93334.09;1673360;84;21618;-53
2022/12/15 06:38:45;;;;;;;173.02;88.22;;;;;;;0.29;82.16;93334.66;1657293;84;21038;-50
2022/12/15 06:41:14;;;;;;;168.50;91.55;;;;;;;0.35;82.09;93343.80;1660984;84;21277;-52
2022/12/15 06:43:41;;;;;;;348.00;168.72;;;;;;;0.48;81.90;93333.11;1631502;86;21121;-51
2022/12/15 06:46:08;;;;;;;323.82;139.70;;;;;;;0.57;81.72;93347.59;1624712;86;21270;-54
2022/12/15 06:48:35;;;;;;;215.90;110.25;;;;;;;0.58;81.44;93342.36;1690870;83;21095;-50
2022/12/15 06:51:05;;;;;;;282.85;143.82;;;;;;;0.57;81.27;93355.71;1707028;83;21101;-54
2022/12/15 06:53:37;;;;;;;283.02;141.05;;;;;;;0.57;81.30;93361.13;1730237;81;21167;-56
2022/12/15 06:56:07;;;;;;;310.30;148.25;;;;;;;0.65;81.38;93367.93;1725221;82;21029;-57
2022/12/15 06:58:34;;;;;;;364.00;169.95;;;;;;;0.77;81.25;93367.27;1684956;83;21223;-54
2022/12/15 07:01:06;;;;;;;363.65;168.52;;;;;;;0.83;80.86;93362.14;1768621;79;21123;-54
2022/12/15 07:03:37;;;;;;;287.80;139.77;;;;;;;0.87;80.96;93370.94;1724580;82;21156;-53
2022/12/15 07:06:09;;;;;;;222.35;120.62;;;;;;;0.95;80.84;93389.32;1713598;81;21964;-53
2022/12/15 07:08:37;;;;;;;;;;;;;;;0.95;80.68;93396.08;1754195;80;21053;-55
2022/12/15 07:11:10;;;;;;;255.05;128.05;;;;;;;1.02;80.65;93403.30;1758979;80;21200;-56
2022/12/15 07:13:37;;;;;;;243.42;127.47;;;;;;;1.15;80.89;93410.34;1743089;81;22339;-50
2022/12/15 07:16:26;;;;;;;267.23;135.40;;;;;;;1.31;80.49;93415.80;1723619;81;21060;-58
2022/12/15 07:18:50;;;;;;;370.90;187.60;;;;;;;1.46;80.46;93425.72;1615451;86;21175;-55
2022/12/15 07:21:22;;;;;;;341.52;168.85;;;;;;;1.66;80.16;93412.90;1630758;86;21116;-57
2022/12/15 07:23:49;;;;;;;290.60;158.45;;;;;;;1.80;79.72;93420.84;1638780;87;21359;-53
2022/12/15 07:26:16;;;;;;;292.23;161.43;;;;;;;1.83;79.17;93423.31;1636012;85;21104;-57
2022/12/15 07:28:49;;;;;;;295.75;166.22;;;;;;;1.84;78.96;93432.97;1640180;86;21676;-56
2022/12/15 07:31:16;;;;;;;330.25;176.20;;;;;;;1.92;78.94;93431.63;1623763;85;21305;-55
2022/12/15 07:33:43;;;;;;;362.68;193.85;;;;;;;2.02;78.59;93430.59;1605477;87;21097;-61
2022/12/15 07:36:10;;;;;;;367.07;195.15;;;;;;;2.11;78.67;93435.58;1627251;87;21180;-60
2022/12/15 07:38:39;;;;;;;338.12;181.93;;;;;;;2.26;78.59;93433.27;1601458;87;21150;-59
2022/12/15 07:41:08;;;;;;;302.75;163.62;;;;;;;2.30;77.73;93432.61;1579393;87;21175;-56
2022/12/15 07:43:39;;;;;;;310.98;172.65;;;;;;;2.30;77.50;93442.11;1557137;90;21495;-56
2022/12/15 07:46:07;;;;;;;336.75;185.63;;;;;;;2.27;77.74;93446.42;1546999;89;21119;-53
2022/12/15 07:48:35;;;;;;;355.43;196.02;;;;;;;2.35;77.72;93451.08;1555651;90;21267;-56
2022/12/15 07:51:06;;;;;;;336.77;180.63;;;;;;;2.39;77.28;93448.45;1559804;90;21878;-56
2022/12/15 07:53:34;;;;;;;301.57;171.70;;;;;;;2.42;77.41;93451.66;1565705;90;21870;-59
2022/12/15 07:56:03;;;;;;;340.35;184.55;;;;;;;2.45;77.21;93452.74;1558160;90;21381;-54
2022/12/15 07:58:30;;;;;;;306.52;168.20;;;;;;;2.49;77.44;93448.01;1536671;91;21171;-55
2022/12/15 08:00:59;;;;;;;334.70;191.55;;;;;;;2.60;77.29;93457.98;1540153;92;21286;-55
2022/12/15 08:03:27;;;;;;;370.63;214.60;;;;;;;2.66;77.24;93469.25;1539700;91;21079;-52
2022/12/15 08:05:55;;;;;;;387.70;206.68;;;;;;;2.81;77.44;93488.64;1557745;90;21744;-58
2022/12/15 08:08:22;;;;;;;360.43;199.50;;;;;;;2.89;76.84;93492.70;1563945;90;21634;-56
2022/12/15 08:10:49;;;;;;;312.80;172.20;;;;;;;2.90;76.65;93494.23;1572816;89;21621;-54
2022/12/15 08:13:17;;;;;;;279.75;152.30;;;;;;;2.93;76.57;93494.72;1544733;90;21163;-54
2022/12/15 08:15:44;;;;;;;317.85;177.05;;;;;;;2.97;76.67;93505.66;1645485;82;21075;-57
2022/12/15 08:18:11;;;;;;;314.88;181.35;;;;;;;3.10;76.75;93513.86;1715537;82;21139;-55
2022/12/15 08:20:38;;;;;;;309.85;172.30;;;;;;;3.28;76.75;93518.21;1732792;81;21144;-55
2022/12/15 08:23:06;;;;;;;293.52;163.65;;;;;;;3.48;76.74;93506.73;1711174;81;21195;-58
2022/12/15 08:25:37;;;;;;;289.38;155.00;;;;;;;3.72;76.14;93511.30;1711401;82;21069;-47
2022/12/15 08:28:04;;;;;;;248.05;134.03;;;;;;;3.77;75.33;93513.47;1709132;82;21208;-56
2022/12/15 08:30:33;;;;;;;252.18;142.25;;;;;;;3.83;75.17;93520.66;1726132;81;21009;-53
2022/12/15 08:33:00;;;;;;;284.48;168.07;;;;;;;3.86;74.94;93514.97;1733322;81;21624;-54
2022/12/15 08:35:27;;;;;;;242.30;133.15;;;;;;;3.92;75.16;93523.52;1721637;81;21138;-55
2022/12/15 08:37:54;;;;;;;248.18;134.03;;;;;;;3.99;74.66;93532.03;1717267;82;21746;-57
2022/12/15 08:40:21;;;;;;;244.77;133.18;;;;;;;4.09;74.72;93542.59;1717733;82;21095;-55
2022/12/15 08:42:48;;;;;;;220.82;126.07;;;;;;;4.22;74.45;93539.29;1708690;82;21069;-57
2022/12/15 08:45:15;;;;;;;191.70;110.88;;;;;;;4.32;73.98;93534.72;1729177;82;21617;-56
2022/12/15 08:47:42;;;;;;;177.02;109.55;;;;;;;4.30;73.70;93533.80;1680243;81;22275;-53
2022/12/15 08:50:10;;;;;;;179.68;104.47;;;;;;;4.35;73.69;93541.41;1736517;81;21256;-55
2022/12/15 08:52:40;;;;;;;152.72;81.85;;;;;;;4.44;73.46;93541.50;1719086;81;21506;-55
2022/12/15 08:55:10;;;;;;;142.62;83.12;;;;;;;4.51;73.25;93545.38;1725665;81;21205;-61
2022/12/15 08:57:56;;;;;;;162.62;93.10;;;;;;;4.62;73.20;93535.51;1708805;81;21642;-61
2022/12/15 09:00:28;;;;;;;;;;;;;;;4.73;72.88;93536.68;1678641;83;21747;-57
2022/12/15 09:02:58;;;;;;;267.45;157.22;;;;;;;4.79;72.72;93530.83;1602773;87;21152;-60
2022/12/15 09:05:29;;;;;;;304.02;183.70;;;;;;;4.82;72.91;93532.67;1599157;87;21140;-51
2022/12/15 09:08:01;;;;;;;286.52;174.72;;;;;;;4.91;72.79;93532.77;1602289;87;21100;-53
2022/12/15 09:10:28;;;;;;;258.40;159.57;;;;;;;5.01;72.66;93531.64;1597570;87;21185;-48
2022/12/15 09:12:55;;;;;;;246.68;151.60;;;;;;;5.09;72.42;93534.89;1598394;88;21111;-50
2022/12/15 09:15:25;;;;;;;222.73;131.00;;;;;;;5.12;72.28;93547.04;1599679;87;21260;-48
2022/12/15 09:18:02;;;;;;;194.70;117.08;;;;;;;5.16;72.04;93539.50;1594256;87;21104;-55
2022/12/15 09:20:37;;;;;;;284.50;162.45;;;;;;;5.15;71.91;93550.23;1592408;88;22048;-50
2022/12/15 09:23:06;;;;;;;282.75;160.88;;;;;;;5.13;71.95;93555.38;1604893;86;21292;-55
2022/12/15 09:25:34;;;;;;;305.27;173.50;;;;;;;5.11;71.86;93564.59;1625856;86;21128;-55
2022/12/15 09:28:01;;;;;;;283.52;166.10;;;;;;;5.10;71.82;93555.48;1632553;86;21330;-55
2022/12/15 09:30:30;;;;;;;265.87;155.32;;;;;;;5.05;71.92;93550.60;1630503;87;21072;-55
2022/12/15 09:32:57;;;;;;;268.17;148.02;;;;;;;4.98;71.89;93552.96;1614531;87;21147;-55
2022/12/15 09:35:35;;;;;;;244.82;143.10;;;;;;;4.91;72.09;93564.69;1606477;86;21018;-58
2022/12/15 09:38:03;;;;;;;210.75;127.53;;;;;;;4.94;72.38;93569.28;1625138;86;21706;-53
2022/12/15 09:40:32;;;;;;;227.25;129.40;;;;;;;5.02;72.35;93580.88;1633005;84;21874;-55
2022/12/15 09:43:00;;;;;;;213.35;123.20;;;;;;;5.08;72.22;93580.47;1617761;87;21084;-52
2022/12/15 09:45:32;;;;;;;214.78;121.62;;;;;;;5.10;72.16;93578.06;1626922;86;21072;-52
2022/12/15 09:48:09;;;;;;;223.15;127.78;;;;;;;5.13;72.31;93585.36;1638032;86;21056;-57
2022/12/15 09:50:41;;;;;;;271.13;146.37;;;;;;;5.13;72.35;93579.16;1601756;87;21201;-54
2022/12/15 09:53:12;;;;;;;266.70;151.07;;;;;;;5.16;72.54;93584.47;1634978;85;22283;-55
2022/12/15 09:55:41;;;;;;;277.05;157.10;;;;;;;5.24;72.40;93581.69;1627476;86;21234;-54
2022/12/15 09:58:19;;;;;;;244.05;149.62;;;;;;;5.33;72.52;93593.43;1627255;86;21095;-54
2022/12/15 10:00:59;;;;;;;302.32;181.02;;;;;;;5.49;72.44;93599.31;1695146;82;21467;-60
2022/12/15 10:03:40;;;;;;;288.80;171.53;;;;;;;5.63;71.81;93608.37;1646716;86;21133;-55
2022/12/15 10:06:16;;;;;;;324.75;192.07;;;;;;;5.70;71.48;93619.02;1531344;91;21136;-58
2022/12/15 10:09:01;;;;;;;344.57;199.10;;;;;;;5.74;71.29;93621.80;1505893;92;21186;-53
2022/12/15 10:11:34;;;;;;;304.27;174.45;;;;;;;5.81;71.14;93630.37;1536012;91;21076;-51
2022/12/15 10:14:13;;;;;;;;;;;;;;;5.88;71.03;93630.10;1526954;91;21202;-59
2022/12/15 10:16:57;;;;;;;294.80;164.32;;;;;;;5.89;70.81;93631.63;1535277;91;20243;-54
2022/12/15 10:19:39;;;;;;;310.05;176.82;;;;;;;5.87;70.76;93632.67;1543807;91;21708;-57
2022/12/15 10:22:13;;;;;;;278.65;166.57;;;;;;;5.89;70.68;93633.77;1529015;91;22322;-53
2022/12/15 10:24:40;;;;;;;314.75;179.38;;;;;;;5.86;70.51;93631.16;1515212;92;21211;-56
2022/12/15 10:27:38;;;;;;;290.75;169.00;;;;;;;5.77;70.71;93631.81;1509194;93;21149;-60
2022/12/15 10:30:08;;;;;;;288.80;167.65;;;;;;;5.80;70.86;93623.39;1499531;93;21310;-58
2022/12/15 10:33:14;;;;;;;290.70;172.60;;;;;;;5.79;70.86;93628.69;1503426;92;21246;-56
2022/12/15 10:35:42;;;;;;;292.07;176.65;;;;;;;5.79;70.84;93632.16;1486245;95;21133;-55
2022/12/15 10:38:29;;;;;;;292.05;174.65;;;;;;;5.77;71.07;93633.80;1469099;95;21233;-57
2022/12/15 10:41:06;;;;;;;303.62;182.53;;;;;;;5.85;71.24;93634.50;1471601;95;21290;-56
2022/12/15 10:43:42;;;;;;;303.10;187.55;;;;;;;6.01;70.83;93642.48;1493121;93;21096;-55
2022/12/15 10:46:25;;;;;;;298.85;180.10;;;;;;;6.06;70.50;93642.52;1501153;94;21282;-57
2022/12/15 10:49:10;;;;;;;308.30;183.70;;;;;;;6.16;70.53;93658.52;1508846;94;21336;-60
2022/12/15 10:51:45;;;;;;;359.00;208.30;;;;;;;6.32;70.28;93657.57;1455463;96;21125;-57
2022/12/15 10:54:14;;;;;;;340.70;203.00;;;;;;;6.38;69.82;93648.36;1453837;96;21144;-58
2022/12/15 10:56:55;;;;;;;309.45;186.90;;;;;;;6.42;69.73;93646.25;1486969;95;21182;-56
2022/12/15 10:59:26;;;;;;;302.50;180.30;;;;;;;6.45;69.58;93659.59;1490107;93;21199;-57
2022/12/15 11:01:54;;;;;;;310.43;185.75;;;;;;;6.45;69.44;93658.23;1543284;91;21143;-56
2022/12/15 11:04:30;;;;;;;307.57;186.43;;;;;;;6.51;69.24;93655.84;1565367;89;21120;-55
2022/12/15 11:06:59;;;;;;;345.80;209.98;;;;;;;6.58;69.21;93656.96;1547986;91;21748;-56
2022/12/15 11:09:35;;;;;;;376.50;223.53;;;;;;;6.57;69.15;93659.55;1547496;91;21709;-51
2022/12/15 11:14:59;;;;;;;399.92;235.55;;;;;;;6.65;69.61;93660.78;1526926;93;21418;-55
2022/12/15 11:17:30;;;;;;;409.15;237.72;;;;;;;6.75;68.95;93665.69;1523335;91;21218;-53
2022/12/15 11:20:04;;;;;;;346.25;219.05;;;;;;;6.80;68.60;93665.09;1507978;91;21719;-56
2022/12/15 11:22:41;;;;;;;339.08;211.30;;;;;;;6.79;68.41;93664.94;1488056;96;21134;-54
2022/12/15 11:25:25;;;;;;;327.35;193.55;;;;;;;6.81;68.23;93666.62;1494051;93;21354;-56
2022/12/15 11:27:55;;;;;;;263.55;154.42;;;;;;;6.79;68.16;93677.23;1478685;95;21209;-59
2022/12/15 11:30:25;;;;;;;268.82;167.22;;;;;;;6.90;68.20;93678.97;1490267;95;21301;-56
2022/12/15 11:32:59;;;;;;;306.52;190.97;;;;;;;7.17;67.94;93675.73;1461229;95;21183;-58
2022/12/15 11:36:21;;;;;;;315.95;186.57;;;;;;;7.81;67.57;93674.05;1423660;98;21528;-60
2022/12/15 11:39:01;;;;;;;334.77;209.95;;;;;;;8.98;66.24;93670.58;1414492;99;21292;-59
2022/12/15 11:41:55;;;;;;;272.17;169.47;;;;;;;11.01;61.68;93667.13;1415806;98;21213;-57
2022/12/15 11:44:33;;;;;;;203.98;131.78;;;;;;;12.52;58.52;93668.27;1414373;99;21273;-55
2022/12/15 11:47:30;;;;;;;145.15;94.60;;;;;;;13.96;53.78;93673.13;1309446;106;21428;-58
2022/12/15 11:50:18;;;;;;;67.03;37.98;;;;;;;14.94;50.25;93666.47;1328726;105;21188;-61
2022/12/15 11:53:36;;;;;;;32.35;18.48;;;;;;;14.86;47.70;93679.31;1319003;107;21295;-59
2022/12/15 11:56:28;;;;;;;13.85;9.98;;;;;;;14.20;47.64;93684.59;1296472;108;21382;-54
2022/12/15 11:59:36;;;;;;;13.38;6.40;;;;;;;14.10;47.12;93682.50;1299351;107;21212;-59
2022/12/15 12:02:41;;;;;;;14.80;7.50;;;;;;;14.31;46.84;93688.03;1310823;106;21245;-56
2022/12/15 12:05:23;;;;;;;7.22;4.50;;;;;;;14.33;46.52;93684.17;1318734;106;21256;-57
2022/12/15 12:08:15;;;;;;;5.62;4.45;;;;;;;13.87;46.34;93683.02;1319361;106;21364;-54
2022/12/15 12:11:01;;;;;;;10.82;4.92;;;;;;;13.23;47.53;93688.94;1291510;107;21907;-62
2022/12/15 12:23:55;;;;;;;9.55;5.83;;;;;;;13.24;48.16;93705.01;1206052;117;21505;-58
2022/12/15 12:26:43;;;;;;;9.83;8.53;;;;;;;13.87;47.26;93712.05;1201115;117;21305;-59
2022/12/15 12:33:01;;;;;;;16.67;14.98;;;;;;;15.34;44.34;93715.31;1179457;119;21305;-55
2022/12/15 12:35:47;;;;;;;7.87;6.45;;;;;;;15.76;43.61;93716.45;1204941;117;21335;-57
2022/12/15 12:38:14;;;;;;;10.45;7.40;;;;;;;16.11;42.46;93707.61;1267627;110;21223;-56
2022/12/15 12:41:06;;;;;;;19.32;12.98;;;;;;;16.43;42.00;93719.28;1224264;115;22151;-56
2022/12/15 12:43:49;;;;;;;12.65;8.30;;;;;;;16.79;40.80;93732.03;1263456;112;21743;-55
2022/12/15 12:49:47;;;;;;;;;;;;;;;;;;;;;
2022/12/15 12:52:50;;;;;;;15.65;12.20;;;;;;;17.53;39.02;93733.44;1245995;112;22078;-56
2022/12/15 12:55:42;;;;;;;14.00;10.72;;;;;;;17.81;39.02;93730.45;1245615;113;22074;-61
2022/12/15 12:59:38;;;;;;;9.00;7.42;;;;;;;17.88;38.46;93733.43;1224287;114;21792;-60
2022/12/15 13:02:28;;;;;;;15.25;12.50;;;;;;;17.35;38.77;93731.91;1243227;114;21920;-56
2022/12/15 13:05:04;;;;;;;15.95;11.08;;;;;;;17.13;38.41;93731.36;1276468;110;21193;-56
2022/12/15 13:07:39;;;;;;;16.60;13.60;;;;;;;16.71;39.23;93738.75;1251811;112;21203;-53
2022/12/15 13:10:17;;;;;;;25.40;15.25;;;;;;;16.34;39.53;93748.69;1252449;110;21285;-52
2022/12/15 13:13:01;;;;;;;53.63;47.90;;;;;;;16.07;39.85;93748.08;1291007;108;21237;-49
2022/12/15 13:15:44;;;;;;;23.62;20.08;;;;;;;15.40;40.71;93752.09;1263431;110;21620;-51
2022/12/15 13:18:21;;;;;;;45.20;39.70;;;;;;;14.53;41.83;93762.23;1272052;110;21349;-58
2022/12/15 13:20:53;;;;;;;41.35;24.02;;;;;;;13.55;43.65;93759.52;1269506;110;21392;-50
2022/12/15 13:23:34;;;;;;;43.35;34.30;;;;;;;12.88;44.87;93762.86;1258583;109;21226;-46
2022/12/15 13:26:09;;;;;;;29.98;19.77;;;;;;;12.36;45.99;93771.48;1279259;110;21270;-52
2022/12/15 13:28:43;;;;;;;30.05;24.30;;;;;;;11.91;47.09;93781.13;1255556;111;21242;-47
2022/12/15 13:31:21;;;;;;;27.93;24.95;;;;;;;11.57;47.96;93788.72;1262997;111;21317;-52
2022/12/15 13:34:06;;;;;;;25.50;14.38;;;;;;;11.27;48.83;93788.58;1264922;111;21248;-50
2022/12/15 13:36:43;;;;;;;29.23;11.53;;;;;;;10.97;49.52;93788.39;1269660;111;21240;-51
2022/12/15 13:39:34;;;;;;;27.70;13.90;;;;;;;10.65;50.25;93791.88;1246096;113;21280;-49
2022/12/15 13:42:10;;;;;;;27.93;15.70;;;;;;;10.26;51.14;93793.07;1242840;112;21198;-52
2022/12/15 13:44:40;;;;;;;56.73;34.53;;;;;;;9.92;52.07;93790.79;1243192;113;21255;-52
2022/12/15 13:47:18;;;;;;;59.98;33.85;;;;;;;9.66;53.02;93798.69;1250157;113;21330;-52
2022/12/15 13:49:59;;;;;;;40.20;27.55;;;;;;;9.52;53.53;93799.97;1271916;110;21246;-53
2022/12/15 13:52:43;;;;;;;37.53;26.73;;;;;;;9.38;54.04;93800.02;1290120;107;21270;-54
2022/12/15 13:55:28;;;;;;;51.45;32.17;;;;;;;9.09;55.37;93805.88;1320683;106;21241;-55
2022/12/15 13:58:03;;;;;;;58.42;33.67;;;;;;;9.09;55.37;93805.88;1275055;110;21231;-50
2022/12/15 14:00:31;;;;;;;77.90;42.80;;;;;;;8.92;55.76;93817.77;1315794;106;21161;-50
2022/12/15 14:03:06;;;;;;;63.00;34.70;;;;;;;8.81;56.34;93825.56;1312669;106;21307;-50
2022/12/15 14:05:33;;;;;;;51.05;27.98;;;;;;;8.75;56.67;93817.78;1330107;105;21194;-50
2022/12/15 14:08:03;;;;;;;49.05;27.40;;;;;;;8.68;57.12;93821.61;1330218;105;21282;-51
2022/12/15 14:10:42;;;;;;;29.12;19.73;;;;;;;8.51;57.54;93828.61;1327225;106;21728;-50
2022/12/15 14:13:28;;;;;;;24.80;15.88;;;;;;;8.32;58.06;93829.03;1329382;106;21834;-50
2022/12/15 14:15:58;;;;;;;45.35;28.25;;;;;;;8.15;58.61;93831.27;1325462;103;22177;-47
2022/12/15 14:18:31;;;;;;;98.12;58.78;;;;;;;7.99;59.18;93832.12;1383439;101;21171;-51
2022/12/15 14:21:03;;;;;;;81.12;48.42;;;;;;;7.86;59.88;93831.48;1377287;102;21692;-51
2022/12/15 14:23:46;;;;;;;96.67;57.70;;;;;;;7.77;60.40;93843.17;1379300;101;21212;-49
2022/12/15 14:26:15;;;;;;;98.50;58.60;;;;;;;7.62;60.65;93837.31;1452686;96;21189;-49
2022/12/15 14:28:44;;;;;;;106.92;64.32;;;;;;;7.39;61.32;93838.59;1449624;96;21337;-49
2022/12/15 14:31:22;;;;;;;117.97;65.25;;;;;;;7.27;61.92;93842.16;1445294;96;21101;-49
2022/12/15 14:34:10;;;;;;;93.50;53.55;;;;;;;7.19;62.30;93842.25;1439199;97;21203;-48
2022/12/15 14:36:37;;;;;;;102.40;59.90;;;;;;;7.02;62.61;93844.28;1396442;100;21726;-53
2022/12/15 14:39:09;;;;;;;152.07;93.07;;;;;;;6.83;63.23;93842.64;1387492;100;21190;-49
2022/12/15 14:41:41;;;;;;;;;;;;;;;6.69;63.51;93836.30;1403009;101;21306;-51
2022/12/15 14:44:34;;;;;;;79.35;47.03;;;;;;;6.56;64.01;93847.12;1394972;100;20658;-47
2022/12/15 14:47:05;;;;;;;81.57;50.57;;;;;;;6.37;64.68;93855.75;1380318;102;21236;-51
2022/12/15 14:49:38;;;;;;;117.30;70.40;;;;;;;6.29;65.23;93854.48;1371228;102;21240;-48
2022/12/15 14:52:06;;;;;;;109.67;59.90;;;;;;;6.21;65.59;93863.34;1356012;103;21328;-51
2022/12/15 14:54:38;;;;;;;113.05;62.13;;;;;;;6.12;65.98;93859.17;1354753;103;21898;-49
2022/12/15 14:57:17;;;;;;;143.43;76.35;;;;;;;6.00;66.28;93865.41;1359063;103;21910;-50
2022/12/15 14:59:47;;;;;;;104.85;62.25;;;;;;;5.92;66.70;93869.55;1355861;103;21226;-47
2022/12/15 15:02:28;;;;;;;105.85;61.45;;;;;;;5.79;66.91;93868.81;1342294;103;21285;-49
2022/12/15 15:05:06;;;;;;;117.53;61.68;;;;;;;5.74;67.50;93874.18;1346454;103;22394;-50
2022/12/15 15:07:36;;;;;;;189.37;95.12;;;;;;;5.68;67.68;93877.89;1340459;104;21311;-48
2022/12/15 15:10:25;;;;;;;239.08;119.53;;;;;;;5.59;67.92;93875.06;1343277;103;21133;-50
2022/12/15 15:12:53;;;;;;;235.20;113.55;;;;;;;5.49;68.21;93883.73;1366663;102;21196;-49
2022/12/15 15:15:24;;;;;;;238.60;110.20;;;;;;;5.43;68.59;93885.45;1368630;102;21228;-48
2022/12/15 15:18:01;;;;;;;217.37;98.55;;;;;;;5.31;68.96;93878.63;1381516;101;21434;-50
2022/12/15 15:20:36;;;;;;;151.40;72.95;;;;;;;5.20;69.11;93884.22;1384077;101;21211;-48
2022/12/15 15:23:16;;;;;;;180.52;82.60;;;;;;;5.11;69.31;93888.95;1401640;97;21138;-56
2022/12/15 15:25:57;;;;;;;189.05;80.87;;;;;;;5.04;69.53;93886.44;1458687;95;21278;-51
2022/12/15 15:28:27;;;;;;;197.20;90.90;;;;;;;5.00;69.80;93887.72;1450099;96;21487;-49
2022/12/15 15:31:05;;;;;;;186.75;84.62;;;;;;;4.94;69.92;93888.84;1461138;96;21218;-47
2022/12/15 15:33:30;;;;;;;139.62;65.60;;;;;;;4.88;69.97;93890.58;1478363;95;21800;-48
2022/12/15 15:35:59;;;;;;;192.60;88.30;;;;;;;4.83;70.28;93898.52;1480155;94;21317;-49
2022/12/15 15:38:33;;;;;;;184.95;86.02;;;;;;;4.80;70.40;93893.94;1480294;94;21605;-47
2022/12/15 15:41:13;;;;;;;184.55;82.15;;;;;;;4.75;70.61;93899.30;1476756;94;21454;-48
2022/12/15 15:43:40;;;;;;;152.60;80.00;;;;;;;4.69;70.67;93902.98;1497594;93;21221;-48
2022/12/15 15:46:11;;;;;;;156.70;78.70;;;;;;;4.59;70.55;93896.62;1456268;95;21274;-48
2022/12/15 15:48:46;;;;;;;530.37;284.57;;;;;;;4.45;70.41;93895.63;1421500;99;21275;-49
2022/12/15 15:51:15;;;;;;;215.90;109.60;;;;;;;4.35;71.00;93900.76;1391476;101;21630;-50
2022/12/15 15:53:42;;;;;;;210.08;109.30;;;;;;;4.33;71.24;93907.81;1397328;99;21128;-48
2022/12/15 15:56:11;;;;;;;180.05;91.25;;;;;;;4.29;71.56;93911.23;1416857;100;21197;-48
2022/12/15 15:58:38;;;;;;;126.50;71.80;;;;;;;4.22;71.42;93920.33;1420951;98;21269;-49
2022/12/15 16:01:05;;;;;;;151.05;77.55;;;;;;;4.11;71.69;93915.77;1410854;100;21135;-49
2022/12/15 16:03:34;;;;;;;152.32;78.07;;;;;;;4.01;72.13;93914.62;1417354;98;21060;-48
2022/12/15 16:06:02;;;;;;;120.72;64.32;;;;;;;3.95;72.18;93914.40;1461082;96;21603;-48
2022/12/15 16:08:34;;;;;;;110.85;60.08;;;;;;;3.87;71.94;93921.18;1454748;97;21298;-49
2022/12/15 16:11:01;;;;;;;121.72;67.30;;;;;;;3.75;72.16;93922.45;1459714;97;21768;-48
2022/12/15 16:13:28;;;;;;;154.47;81.67;;;;;;;3.65;72.63;93922.86;1452908;97;21117;-48
2022/12/15 16:15:55;;;;;;;182.15;93.25;;;;;;;3.59;72.85;93916.41;1456519;96;21219;-48
2022/12/15 16:18:25;;;;;;;285.90;123.67;;;;;;;3.53;73.15;93917.32;1455880;96;22183;-51
2022/12/15 16:20:53;;;;;;;231.97;104.05;;;;;;;3.45;73.33;93927.41;1450544;97;21174;-48
2022/12/15 16:23:25;;;;;;;250.03;108.90;;;;;;;3.36;73.54;93923.12;1465015;92;21259;-49
2022/12/15 16:25:57;;;;;;;280.55;120.28;;;;;;;3.34;73.81;93925.50;1536511;92;21081;-49
2022/12/15 16:28:29;;;;;;;258.73;106.58;;;;;;;3.35;74.04;93924.31;1487984;94;21101;-48
2022/12/15 16:31:00;;;;;;;256.70;118.87;;;;;;;3.34;74.13;93926.86;1489537;95;21257;-50
2022/12/15 16:33:28;;;;;;;323.25;135.43;;;;;;;3.34;74.24;93936.38;1495059;94;21159;-49
2022/12/15 16:35:56;;;;;;;251.60;115.47;;;;;;;3.35;74.16;93942.77;1477842;95;21436;-50
2022/12/15 16:38:29;;;;;;;226.18;109.30;;;;;;;3.33;74.24;93951.16;1460285;95;21811;-49
2022/12/15 16:40:56;;;;;;;229.70;114.55;;;;;;;3.33;74.09;93962.02;1512719;93;21616;-49
2022/12/15 16:43:25;;;;;;;195.30;106.43;;;;;;;3.29;74.01;93971.63;1494736;95;21138;-50
2022/12/15 16:45:52;;;;;;;177.35;95.03;;;;;;;3.22;73.96;93976.44;1569102;88;21155;-48
2022/12/15 16:48:19;;;;;;;170.10;93.90;;;;;;;3.10;73.89;93975.13;1610819;88;21273;-47
2022/12/15 16:50:57;;;;;;;230.80;131.22;;;;;;;2.92;74.16;93977.41;1606101;88;21084;-48
2022/12/15 16:53:32;;;;;;;167.95;102.82;;;;;;;2.81;74.38;93991.77;1555681;91;21193;-48
2022/12/15 16:56:02;;;;;;;119.62;75.28;;;;;;;2.72;74.81;93992.14;1534436;92;21271;-49
2022/12/15 16:58:29;;;;;;;137.55;76.55;;;;;;;2.65;75.01;94003.14;1530689;92;21106;-49
2022/12/15 17:00:57;;;;;;;213.68;111.40;;;;;;;2.62;75.19;93998.52;1541136;92;21271;-49
2022/12/15 17:03:27;;;;;;;281.38;138.97;;;;;;;2.50;75.50;94005.91;1555259;90;21162;-47
2022/12/15 17:06:01;;;;;;;291.77;142.28;;;;;;;2.46;76.00;94005.19;1553001;90;21083;-50
2022/12/15 17:08:50;;;;;;;357.65;181.22;;;;;;;2.40;75.91;94008.98;1554642;90;21210;-49
2022/12/15 17:11:21;;;;;;;276.27;142.28;;;;;;;2.31;76.68;94012.05;1547816;90;21031;-49
2022/12/15 17:13:50;;;;;;;288.12;139.15;;;;;;;2.37;77.73;94023.95;1513989;92;21175;-49
2022/12/15 17:16:18;;;;;;;270.30;139.77;;;;;;;2.46;77.82;94028.25;1512048;92;21140;-49